Time;durP1;ratioP1;P1;durP2;ratioP2;P2;SDS_P1;SDS_P2;PMS_P1;PMS_P2;Temp;Humidity;BMP_temperature;BMP_pressure;BME280_temperature;BME280_humidity;BME280_pressure;Samples;Min_cycle;Max_cycle;Signal;HPM_P1;HPM_P2
2022/12/12 00:01:56;;;;;;;32.97;19.87;;;1.00;99.90;;;;;;10435477;28;20220;-75
2022/12/12 00:06:57;;;;;;;32.60;19.83;;;1.00;99.90;;;;;;10443393;28;20230;-77
2022/12/12 00:11:57;;;;;;;31.63;19.53;;;0.90;99.90;;;;;;10435570;28;20231;-75
2022/12/12 00:16:58;;;;;;;33.40;19.77;;;0.90;99.90;;;;;;10433627;28;20266;-77
2022/12/12 00:21:58;;;;;;;31.53;19.80;;;0.80;99.90;;;;;;10435667;28;20232;-76
2022/12/12 00:26:59;;;;;;;33.23;20.30;;;0.80;99.90;;;;;;10432857;28;20338;-77
2022/12/12 00:32:02;;;;;;;29.97;18.83;;;0.80;99.90;;;;;;10436219;28;20219;-76
2022/12/12 00:37:03;;;;;;;31.40;17.97;;;0.70;99.90;;;;;;10433935;28;20410;-77
2022/12/12 00:42:04;;;;;;;34.43;19.87;;;0.70;99.90;;;;;;10433054;28;20315;-76
2022/12/12 00:47:04;;;;;;;31.90;18.63;;;0.60;99.90;;;;;;10443923;28;20252;-76
2022/12/12 00:52:08;;;;;;;30.87;19.03;;;0.60;99.90;;;;;;10440848;28;20223;-77
2022/12/12 00:57:08;;;;;;;32.13;18.23;;;0.60;99.90;;;;;;10432151;28;20251;-76
2022/12/12 01:02:09;;;;;;;33.20;19.17;;;0.60;99.90;;;;;;10431855;28;20231;-77
2022/12/12 01:07:10;;;;;;;32.60;19.70;;;0.60;99.90;;;;;;10431645;28;20311;-76
2022/12/12 01:12:10;;;;;;;34.70;19.57;;;0.60;99.90;;;;;;10432978;28;20216;-77
2022/12/12 01:17:11;;;;;;;40.00;19.60;;;0.70;99.90;;;;;;10431188;28;20221;-76
2022/12/12 01:22:11;;;;;;;34.37;19.60;;;0.70;99.90;;;;;;10435763;28;20221;-77
2022/12/12 01:27:12;;;;;;;30.87;19.50;;;0.70;99.90;;;;;;10430546;28;20226;-77
2022/12/12 01:32:12;;;;;;;33.37;19.97;;;0.70;99.90;;;;;;10430064;28;20247;-76
2022/12/12 01:37:13;;;;;;;34.10;19.67;;;0.70;99.90;;;;;;10429290;28;20602;-76
2022/12/12 01:42:16;;;;;;;34.67;19.90;;;0.70;99.90;;;;;;10431727;28;20222;-76
2022/12/12 01:47:19;;;;;;;28.53;18.53;;;0.80;99.90;;;;;;10434879;28;20227;-76
2022/12/12 01:52:29;;;;;;;32.03;18.97;;;0.80;99.90;;;;;;10427997;28;20220;-77
2022/12/12 01:57:35;;;;;;;34.07;19.43;;;0.80;99.90;;;;;;10429063;28;20303;-76
2022/12/12 02:02:38;;;;;;;33.37;19.97;;;0.80;99.90;;;;;;10425700;28;20259;-75
2022/12/12 02:07:38;;;;;;;31.87;19.37;;;0.80;99.90;;;;;;10432770;28;20220;-77
2022/12/12 02:12:39;;;;;;;34.03;19.10;;;0.70;99.90;;;;;;10426604;28;20227;-77
2022/12/12 02:18:20;;;;;;;33.40;19.33;;;0.80;99.90;;;;;;10433866;28;20235;-77
2022/12/12 02:23:30;;;;;;;33.17;20.30;;;0.80;99.90;;;;;;10432103;28;20227;-75
2022/12/12 02:28:47;;;;;;;32.47;19.90;;;0.80;99.90;;;;;;10426757;28;20692;-75
2022/12/12 02:34:02;;;;;;;32.13;20.17;;;0.90;99.90;;;;;;10420672;28;20223;-75
2022/12/12 02:39:20;;;;;;;30.67;20.07;;;0.90;99.90;;;;;;10430382;28;20776;-76
2022/12/12 02:44:29;;;;;;;33.00;19.67;;;1.00;99.90;;;;;;10431608;28;20238;-75
2022/12/12 02:49:48;;;;;;;33.47;20.10;;;1.00;99.90;;;;;;10433286;28;20212;-76
2022/12/12 02:54:49;;;;;;;37.30;20.60;;;1.00;99.90;;;;;;10432102;28;20227;-76
2022/12/12 03:00:07;;;;;;;37.17;21.50;;;1.00;99.90;;;;;;10430851;28;20942;-77
2022/12/12 03:11:00;;;;;;;35.90;20.63;;;1.10;99.90;;;;;;10431184;28;20216;-75
2022/12/12 03:16:25;;;;;;;35.63;20.63;;;1.10;99.90;;;;;;10435999;28;20294;-77
2022/12/12 03:21:42;;;;;;;37.17;21.73;;;1.10;99.90;;;;;;10433493;28;20704;-76
2022/12/12 03:26:53;;;;;;;37.23;23.07;;;1.10;99.90;;;;;;10432865;28;20228;-77
2022/12/12 03:32:00;;;;;;;34.57;21.87;;;1.10;99.90;;;;;;10434106;28;20885;-77
2022/12/12 03:37:07;;;;;;;34.40;21.43;;;1.10;99.90;;;;;;10441330;28;20721;-76
2022/12/12 03:42:15;;;;;;;41.03;22.77;;;1.10;99.90;;;;;;10435560;28;20342;-77
2022/12/12 03:47:28;;;;;;;37.13;22.37;;;1.10;99.90;;;;;;10435765;28;20814;-76
2022/12/12 03:52:35;;;;;;;39.10;22.33;;;1.10;99.90;;;;;;10433639;28;20278;-76
2022/12/12 03:57:48;;;;;;;39.13;22.43;;;1.10;99.90;;;;;;10437647;28;20267;-77
2022/12/12 04:03:28;;;;;;;36.70;21.93;;;1.10;99.90;;;;;;10439505;28;20229;-76
2022/12/12 04:08:29;;;;;;;39.57;22.63;;;1.10;99.90;;;;;;10418642;28;20211;-75
2022/12/12 04:13:55;;;;;;;36.40;21.90;;;1.00;99.90;;;;;;10430047;28;20227;-75
2022/12/12 04:19:09;;;;;;;33.93;21.13;;;1.00;99.90;;;;;;10436889;28;20228;-76
2022/12/12 04:24:10;;;;;;;36.33;21.53;;;1.00;99.90;;;;;;10433110;28;20227;-75
2022/12/12 04:29:29;;;;;;;35.57;21.83;;;1.00;99.90;;;;;;10433190;28;20227;-75
2022/12/12 04:34:48;;;;;;;37.07;21.70;;;1.00;99.90;;;;;;10435706;28;20215;-75
2022/12/12 04:39:52;;;;;;;38.00;22.37;;;1.00;99.90;;;;;;10431603;28;20743;-76
2022/12/12 04:45:00;;;;;;;39.53;22.17;;;1.00;99.90;;;;;;10433322;28;20584;-75
2022/12/12 04:50:01;;;;;;;37.47;22.00;;;1.00;99.90;;;;;;10437589;28;20308;-76
2022/12/12 04:55:08;;;;;;;33.57;20.17;;;1.00;99.90;;;;;;10436999;28;20765;-76
2022/12/12 05:00:11;;;;;;;36.57;21.60;;;1.00;99.90;;;;;;10431412;28;20224;-76
2022/12/12 05:05:25;;;;;;;35.43;22.00;;;1.00;99.90;;;;;;10431526;28;20177;-77
2022/12/12 05:10:25;;;;;;;38.83;23.07;;;1.00;99.90;;;;;;10435219;28;20220;-76
2022/12/12 05:15:28;;;;;;;38.40;22.83;;;1.00;99.90;;;;;;10429321;28;20220;-77
2022/12/12 05:20:29;;;;;;;36.17;22.03;;;1.10;99.90;;;;;;10435565;28;20584;-76
2022/12/12 05:25:29;;;;;;;39.40;21.37;;;1.10;99.90;;;;;;10428588;28;20212;-76
2022/12/12 05:30:33;;;;;;;35.47;21.83;;;1.20;99.90;;;;;;10433714;28;20303;-77
2022/12/12 05:35:34;;;;;;;39.60;22.23;;;1.20;99.90;;;;;;10439452;28;20574;-76
2022/12/12 05:40:34;;;;;;;36.30;21.60;;;1.20;99.90;;;;;;10435303;28;20223;-77
2022/12/12 05:45:35;;;;;;;35.47;21.73;;;1.30;99.90;;;;;;10435187;28;20319;-76
2022/12/12 05:50:35;;;;;;;35.80;21.90;;;1.30;99.90;;;;;;10433647;28;20290;-76
2022/12/12 05:55:36;;;;;;;34.90;21.30;;;1.30;99.90;;;;;;10430152;28;20228;-76
2022/12/12 06:00:36;;;;;;;36.83;21.87;;;1.30;99.90;;;;;;10430932;28;20273;-76
2022/12/12 06:05:37;;;;;;;32.57;20.60;;;1.30;99.90;;;;;;10434299;28;20212;-77
2022/12/12 06:10:38;;;;;;;35.10;21.23;;;1.30;99.90;;;;;;10432078;28;20240;-77
2022/12/12 06:15:39;;;;;;;32.53;19.40;;;1.30;99.90;;;;;;10426456;28;20247;-75
2022/12/12 06:20:40;;;;;;;33.77;20.40;;;1.30;99.90;;;;;;10432881;28;20307;-76
2022/12/12 06:25:40;;;;;;;34.63;20.20;;;1.30;99.90;;;;;;10425699;28;20299;-75
2022/12/12 06:30:41;;;;;;;34.70;20.57;;;1.30;99.90;;;;;;10433177;28;20235;-77
2022/12/12 06:35:41;;;;;;;36.17;21.60;;;1.20;99.90;;;;;;10423515;28;20220;-76
2022/12/12 06:40:42;;;;;;;37.37;21.37;;;1.10;99.90;;;;;;10424264;28;20579;-76
2022/12/12 06:45:42;;;;;;;34.37;20.73;;;1.10;99.90;;;;;;10431549;28;20222;-76
2022/12/12 06:50:44;;;;;;;30.57;19.33;;;1.00;99.90;;;;;;10428692;28;20218;-76
2022/12/12 06:55:45;;;;;;;32.50;19.73;;;0.90;99.90;;;;;;10440556;28;20236;-76
2022/12/12 07:00:52;;;;;;;35.33;20.53;;;0.90;99.90;;;;;;10431228;28;20244;-76
2022/12/12 07:05:52;;;;;;;34.43;20.23;;;0.90;99.90;;;;;;10427012;28;20295;-75
2022/12/12 07:10:54;;;;;;;31.17;19.90;;;0.90;99.90;;;;;;10429508;28;20306;-77
2022/12/12 07:15:55;;;;;;;33.47;19.67;;;0.80;99.90;;;;;;10427141;28;20212;-76
2022/12/12 07:20:55;;;;;;;36.63;24.07;;;0.90;99.90;;;;;;10430068;28;20220;-77
2022/12/12 07:25:56;;;;;;;33.57;22.73;;;0.90;99.90;;;;;;10425495;28;20264;-77
2022/12/12 07:30:56;;;;;;;35.27;20.10;;;0.90;99.90;;;;;;10426938;28;20265;-76
2022/12/12 07:36:01;;;;;;;33.53;18.40;;;0.90;99.90;;;;;;10431519;28;20703;-73
2022/12/12 07:41:04;;;;;;;33.63;19.77;;;0.90;99.90;;;;;;10432819;28;20227;-76
2022/12/12 07:46:07;;;;;;;32.43;18.80;;;0.90;99.90;;;;;;10427916;28;20679;-75
2022/12/12 07:51:08;;;;;;;33.07;18.23;;;1.00;99.90;;;;;;10426263;28;20712;-78
2022/12/12 07:56:11;;;;;;;29.67;19.30;;;1.10;99.90;;;;;;10432325;28;20229;-75
2022/12/12 08:01:17;;;;;;;30.20;18.20;;;1.10;99.90;;;;;;10434670;28;20270;-76
2022/12/12 08:06:20;;;;;;;30.63;18.73;;;1.20;99.90;;;;;;10439228;28;20289;-77
2022/12/12 08:11:22;;;;;;;32.93;18.77;;;1.30;99.90;;;;;;10432787;28;20609;-77
2022/12/12 08:16:26;;;;;;;30.83;18.10;;;1.40;99.90;;;;;;10435838;28;20224;-76
2022/12/12 08:21:27;;;;;;;31.40;18.37;;;1.50;99.90;;;;;;10431828;28;20657;-77
2022/12/12 08:26:29;;;;;;;30.30;17.80;;;1.50;99.90;;;;;;10437551;28;20223;-76
2022/12/12 08:31:29;;;;;;;29.60;18.03;;;1.70;99.90;;;;;;10430972;28;20248;-77
2022/12/12 08:36:32;;;;;;;31.13;17.87;;;1.80;99.90;;;;;;10437010;28;20665;-77
2022/12/12 08:41:36;;;;;;;28.67;17.67;;;2.00;99.90;;;;;;10429390;28;20235;-76
2022/12/12 08:46:37;;;;;;;28.40;17.97;;;2.10;99.90;;;;;;10429498;28;20296;-73
2022/12/12 08:51:41;;;;;;;28.93;16.73;;;2.30;99.90;;;;;;10435961;28;20675;-77
2022/12/12 08:56:41;;;;;;;29.87;17.57;;;2.30;99.90;;;;;;10435741;28;20293;-77
2022/12/12 09:01:42;;;;;;;30.87;18.67;;;2.40;99.90;;;;;;10429385;28;20302;-76
2022/12/12 09:06:44;;;;;;;27.60;17.57;;;2.80;99.90;;;;;;10434942;28;20277;-75
2022/12/12 09:11:45;;;;;;;27.20;16.47;;;4.90;99.90;;;;;;10435245;28;20691;-77
2022/12/12 09:16:45;;;;;;;23.53;16.47;;;7.90;99.90;;;;;;10427703;28;20224;-79
2022/12/12 09:21:46;;;;;;;23.83;16.00;;;10.20;99.90;;;;;;10433140;28;20641;-77
2022/12/12 09:26:47;;;;;;;27.23;17.07;;;11.60;99.90;;;;;;10434564;28;20224;-77
2022/12/12 09:31:47;;;;;;;26.33;17.50;;;12.80;98.00;;;;;;10433697;28;20243;-77
2022/12/12 09:36:48;;;;;;;23.20;17.37;;;13.10;93.50;;;;;;10428050;28;20227;-78
2022/12/12 09:41:48;;;;;;;23.63;17.77;;;13.20;91.70;;;;;;10432024;28;20596;-77
2022/12/12 09:46:56;;;;;;;22.27;16.80;;;13.60;89.50;;;;;;10434184;28;20226;-77
2022/12/12 09:51:57;;;;;;;22.83;16.50;;;11.80;90.40;;;;;;10431535;28;20354;-77
2022/12/12 09:57:10;;;;;;;24.10;17.60;;;9.00;95.40;;;;;;10431223;28;20225;-77
2022/12/12 10:02:11;;;;;;;25.67;16.83;;;7.30;99.90;;;;;;10433363;28;20314;-77
2022/12/12 10:07:21;;;;;;;25.00;16.57;;;6.20;99.90;;;;;;10434093;28;20217;-77
2022/12/12 10:12:22;;;;;;;25.13;16.70;;;5.40;99.90;;;;;;10431912;28;20220;-76
2022/12/12 10:17:31;;;;;;;24.00;16.27;;;5.00;99.90;;;;;;10424930;28;20229;-76
2022/12/12 10:22:35;;;;;;;26.57;16.37;;;4.80;99.90;;;;;;10430880;28;20851;-77
2022/12/12 10:27:36;;;;;;;24.97;16.23;;;5.00;99.90;;;;;;10423846;28;20467;-77
2022/12/12 10:32:43;;;;;;;27.80;17.17;;;5.40;99.90;;;;;;10425200;28;20834;-77
2022/12/12 10:38:01;;;;;;;25.70;15.50;;;5.30;99.90;;;;;;10431312;28;20225;-76
2022/12/12 10:43:09;;;;;;;26.23;17.17;;;5.10;99.90;;;;;;10423715;28;20703;-78
2022/12/12 10:48:13;;;;;;;25.73;16.90;;;4.70;99.90;;;;;;10432309;28;20566;-77
2022/12/12 10:53:14;;;;;;;27.97;17.83;;;4.40;99.90;;;;;;10431857;28;20225;-77
2022/12/12 10:58:16;;;;;;;28.00;16.80;;;4.40;99.90;;;;;;10429931;28;20238;-77
2022/12/12 11:03:28;;;;;;;26.53;16.43;;;4.80;99.90;;;;;;10428262;28;20267;-77
2022/12/12 11:08:31;;;;;;;25.40;16.13;;;5.30;99.90;;;;;;10431513;28;20302;-77
2022/12/12 11:13:43;;;;;;;26.30;16.87;;;5.60;99.90;;;;;;10432431;28;20227;-77
2022/12/12 11:19:04;;;;;;;26.93;17.43;;;5.40;99.90;;;;;;10424273;28;20669;-76
2022/12/12 11:24:17;;;;;;;22.83;16.20;;;4.90;99.90;;;;;;10426888;28;20314;-77
2022/12/12 11:29:51;;;;;;;24.67;16.83;;;4.50;99.90;;;;;;10428093;28;20755;-76
2022/12/12 11:34:58;;;;;;;27.47;16.40;;;4.20;99.90;;;;;;10414818;28;20219;-76
2022/12/12 11:39:59;;;;;;;27.40;16.57;;;4.00;99.90;;;;;;10434745;28;20265;-76
2022/12/12 11:45:01;;;;;;;26.87;18.10;;;4.10;99.90;;;;;;10434774;28;20220;-77
2022/12/12 11:50:16;;;;;;;28.10;16.67;;;4.30;99.90;;;;;;10436485;28;20236;-76
2022/12/12 11:55:23;;;;;;;24.47;16.73;;;4.40;99.90;;;;;;10428414;28;20209;-77
2022/12/12 12:00:31;;;;;;;28.10;18.03;;;4.40;99.90;;;;;;10436205;28;20207;-76
2022/12/12 12:05:51;;;;;;;26.03;17.37;;;4.50;99.90;;;;;;10436525;28;20209;-76
2022/12/12 12:11:11;;;;;;;26.47;17.20;;;4.40;99.90;;;;;;10434301;28;20219;-75
2022/12/12 12:16:32;;;;;;;24.70;15.13;;;4.10;99.90;;;;;;10434144;28;20251;-75
2022/12/12 12:22:07;;;;;;;22.60;14.50;;;3.90;99.90;;;;;;10438265;28;20314;-77
2022/12/12 12:27:38;;;;;;;17.43;11.63;;;3.90;99.90;;;;;;10434533;28;20270;-77
2022/12/12 12:32:52;;;;;;;25.87;14.50;;;3.70;99.90;;;;;;10429992;28;20227;-77
2022/12/12 12:38:06;;;;;;;20.60;13.67;;;3.60;99.90;;;;;;10435356;28;20223;-76
2022/12/12 12:43:19;;;;;;;20.43;13.17;;;3.80;99.90;;;;;;10433075;28;20635;-77
2022/12/12 12:48:21;;;;;;;24.50;14.60;;;4.00;99.90;;;;;;10432625;28;20251;-77
2022/12/12 12:53:31;;;;;;;23.13;13.43;;;3.90;99.90;;;;;;10437581;28;20224;-77
2022/12/12 12:58:37;;;;;;;20.73;12.80;;;3.90;99.90;;;;;;10428716;28;20304;-74
2022/12/12 13:03:48;;;;;;;18.80;12.67;;;4.00;99.90;;;;;;10438161;28;20215;-76
2022/12/12 13:09:28;;;;;;;21.27;12.20;;;4.10;99.90;;;;;;10430504;28;20271;-76
2022/12/12 13:14:41;;;;;;;21.30;13.67;;;4.20;99.90;;;;;;10426494;28;20238;-73
2022/12/12 13:19:45;;;;;;;24.43;13.30;;;4.30;99.90;;;;;;10428745;28;20304;-77
2022/12/12 13:25:18;;;;;;;18.97;12.70;;;4.40;99.90;;;;;;10442544;28;20239;-78
2022/12/12 13:30:22;;;;;;;25.80;13.93;;;4.40;99.90;;;;;;10412618;28;20625;-77
2022/12/12 13:35:46;;;;;;;17.53;11.60;;;4.30;99.90;;;;;;10429361;28;20272;-77
2022/12/12 13:40:58;;;;;;;18.90;12.30;;;4.30;99.90;;;;;;10426052;28;20223;-77
2022/12/12 13:46:27;;;;;;;22.73;13.37;;;4.30;99.90;;;;;;10434613;28;20227;-77
2022/12/12 13:51:30;;;;;;;19.17;12.10;;;4.20;99.90;;;;;;10442343;28;20220;-77
2022/12/12 13:56:34;;;;;;;19.70;12.70;;;4.20;99.90;;;;;;10426107;28;20216;-78
2022/12/12 14:01:43;;;;;;;21.33;12.87;;;4.10;99.90;;;;;;10443535;28;20219;-76
2022/12/12 14:06:44;;;;;;;29.83;12.47;;;4.00;99.90;;;;;;10428767;28;20262;-77
2022/12/12 14:11:44;;;;;;;18.07;12.10;;;3.80;99.90;;;;;;10433791;28;20760;-77
2022/12/12 14:16:55;;;;;;;20.23;12.53;;;3.60;99.90;;;;;;10427524;28;20216;-76
2022/12/12 14:21:56;;;;;;;16.73;11.20;;;3.30;99.90;;;;;;10431728;28;20247;-76
2022/12/12 14:27:00;;;;;;;23.50;12.33;;;3.20;99.90;;;;;;10427579;28;20253;-76
2022/12/12 14:32:15;;;;;;;21.37;12.33;;;3.00;99.90;;;;;;10430710;28;20216;-74
2022/12/12 14:37:36;;;;;;;21.57;12.87;;;2.80;99.90;;;;;;10431141;28;20247;-74
2022/12/12 14:42:59;;;;;;;23.57;14.10;;;2.70;99.90;;;;;;10425639;28;20332;-76
2022/12/12 14:48:13;;;;;;;24.67;14.03;;;2.60;99.90;;;;;;10429597;28;20322;-74
2022/12/12 14:53:23;;;;;;;25.33;14.60;;;2.60;99.90;;;;;;10430059;28;20625;-76
2022/12/12 14:58:29;;;;;;;24.17;14.10;;;2.50;99.90;;;;;;10435932;28;20227;-76
2022/12/12 15:03:38;;;;;;;20.90;14.43;;;2.40;99.90;;;;;;10434222;28;21064;-76
2022/12/12 15:08:40;;;;;;;21.13;14.50;;;2.40;99.90;;;;;;10432572;28;20691;-75
2022/12/12 15:13:56;;;;;;;21.73;13.97;;;2.40;99.90;;;;;;10441000;28;20246;-76
2022/12/12 15:18:58;;;;;;;22.43;15.33;;;2.40;99.90;;;;;;10435963;28;20337;-76
2022/12/12 15:23:59;;;;;;;23.37;15.53;;;2.30;99.90;;;;;;10432637;28;20632;-77
2022/12/12 15:28:59;;;;;;;23.80;14.80;;;2.30;99.90;;;;;;10436081;28;20249;-74
2022/12/12 15:34:00;;;;;;;21.57;14.67;;;2.20;99.90;;;;;;10443790;28;20227;-77
2022/12/12 15:39:09;;;;;;;30.27;16.47;;;2.20;99.90;;;;;;10439395;28;20214;-75
2022/12/12 15:44:16;;;;;;;23.33;15.33;;;2.10;99.90;;;;;;10442183;28;20235;-76
2022/12/12 15:49:43;;;;;;;23.87;14.83;;;2.00;99.90;;;;;;10437570;28;20634;-75
2022/12/12 15:54:46;;;;;;;26.10;16.47;;;1.80;99.90;;;;;;10443278;28;20220;-77
2022/12/12 15:59:54;;;;;;;28.43;16.97;;;1.70;99.90;;;;;;10432326;28;20224;-77
2022/12/12 16:04:58;;;;;;;28.27;16.73;;;1.70;99.90;;;;;;10435834;28;20654;-76
2022/12/12 16:10:02;;;;;;;26.53;16.90;;;1.60;99.90;;;;;;10432941;28;20227;-76
2022/12/12 16:15:27;;;;;;;23.63;15.63;;;1.50;99.90;;;;;;10434829;28;20274;-77
2022/12/12 16:20:29;;;;;;;25.20;15.17;;;1.30;99.90;;;;;;10470229;28;20778;-77
2022/12/12 16:25:33;;;;;;;25.67;16.73;;;1.10;99.90;;;;;;10431373;28;20239;-77
2022/12/12 16:30:35;;;;;;;23.33;14.03;;;0.80;99.90;;;;;;10438170;28;20239;-77
2022/12/12 16:35:35;;;;;;;24.03;15.53;;;0.70;99.90;;;;;;10438069;28;20592;-77
2022/12/12 16:40:36;;;;;;;33.23;19.40;;;0.50;99.90;;;;;;10430242;28;20294;-76
2022/12/12 16:45:37;;;;;;;29.43;17.17;;;0.30;99.90;;;;;;10429005;28;20857;-77
2022/12/12 16:50:38;;;;;;;24.80;15.43;;;0.30;99.90;;;;;;10428144;28;20303;-75
2022/12/12 16:55:40;;;;;;;27.83;16.10;;;0.20;99.90;;;;;;10429766;28;20212;-77
2022/12/12 17:00:42;;;;;;;24.97;14.73;;;0.10;99.90;;;;;;10437329;28;20883;-77
2022/12/12 17:05:44;;;;;;;22.40;14.80;;;0.00;99.90;;;;;;10433515;28;20320;-77
2022/12/12 17:10:46;;;;;;;25.97;15.57;;;-0.10;99.90;;;;;;10436712;28;20216;-77
2022/12/12 17:15:47;;;;;;;26.33;15.03;;;-0.10;99.90;;;;;;10435683;28;20767;-76
2022/12/12 17:20:48;;;;;;;24.00;13.93;;;-0.20;99.90;;;;;;10429735;28;20221;-76
2022/12/12 17:25:49;;;;;;;24.93;15.73;;;-0.20;99.90;;;;;;10436417;28;20501;-73
2022/12/12 17:30:49;;;;;;;28.93;18.23;;;-0.30;99.90;;;;;;10435287;28;20683;-77
2022/12/12 17:36:02;;;;;;;34.77;19.97;;;-0.30;99.90;;;;;;10429125;28;20213;-78
2022/12/12 17:41:04;;;;;;;25.63;16.63;;;-0.40;99.90;;;;;;10432055;28;20592;-77
2022/12/12 17:46:12;;;;;;;28.87;17.83;;;-0.40;99.90;;;;;;10430352;28;20675;-78
2022/12/12 17:51:19;;;;;;;29.17;18.20;;;-0.50;99.90;;;;;;10426977;28;20224;-77
2022/12/12 17:56:22;;;;;;;29.83;18.20;;;-0.50;99.90;;;;;;10428961;28;20262;-77
2022/12/12 18:01:24;;;;;;;36.60;21.77;;;-0.50;99.90;;;;;;10431114;28;20740;-77
2022/12/12 18:06:28;;;;;;;38.67;22.13;;;-0.50;99.90;;;;;;10436977;28;20266;-76
2022/12/12 18:11:31;;;;;;;36.57;19.90;;;-0.60;99.90;;;;;;10427550;28;20247;-76
2022/12/12 18:16:36;;;;;;;34.03;19.10;;;-0.60;99.90;;;;;;10432372;28;20226;-76
2022/12/12 18:21:36;;;;;;;30.27;18.93;;;-0.50;99.90;;;;;;10434172;28;20255;-76
2022/12/12 18:26:40;;;;;;;36.97;20.47;;;-0.50;99.90;;;;;;10433117;28;20687;-76
2022/12/12 18:31:41;;;;;;;34.30;18.97;;;-0.50;99.90;;;;;;10426558;28;20232;-78
2022/12/12 18:36:42;;;;;;;33.80;19.27;;;-0.60;99.90;;;;;;10432603;28;20319;-77
2022/12/12 18:41:42;;;;;;;32.47;19.87;;;-0.70;99.90;;;;;;10425597;28;20251;-78
2022/12/12 18:46:43;;;;;;;32.00;19.50;;;-0.70;99.90;;;;;;10433502;28;20678;-76
2022/12/12 18:51:44;;;;;;;37.30;20.77;;;-0.70;99.90;;;;;;10426713;28;20220;-77
2022/12/12 18:56:48;;;;;;;36.70;21.00;;;-0.60;99.90;;;;;;10432843;28;20249;-77
2022/12/12 19:01:50;;;;;;;37.77;21.57;;;-0.60;99.90;;;;;;10432820;28;20362;-75
2022/12/12 19:06:51;;;;;;;34.57;20.70;;;-0.60;99.90;;;;;;10425786;28;20224;-75
2022/12/12 19:11:51;;;;;;;32.53;20.40;;;-0.70;99.90;;;;;;10430942;28;20604;-76
2022/12/12 19:16:52;;;;;;;37.83;21.20;;;-0.60;99.90;;;;;;10431032;28;20220;-76
2022/12/12 19:21:52;;;;;;;33.93;19.57;;;-0.70;99.90;;;;;;10430340;28;20228;-76
2022/12/12 19:26:53;;;;;;;38.27;21.67;;;-0.70;99.90;;;;;;10426534;28;20228;-77
2022/12/12 19:31:54;;;;;;;34.33;19.13;;;-0.70;99.90;;;;;;10430650;28;20223;-77
2022/12/12 19:36:55;;;;;;;34.80;18.73;;;-0.80;99.90;;;;;;10420745;28;20224;-76
2022/12/12 19:41:55;;;;;;;36.70;19.83;;;-0.80;99.90;;;;;;10426960;28;20311;-76
2022/12/12 19:46:56;;;;;;;35.90;20.83;;;-0.90;99.90;;;;;;10430305;28;20244;-78
2022/12/12 19:51:59;;;;;;;35.73;21.00;;;-1.00;99.90;;;;;;10438447;28;20227;-76
2022/12/12 19:57:03;;;;;;;35.17;20.47;;;-1.00;99.90;;;;;;10444392;28;20316;-76
2022/12/12 20:02:05;;;;;;;34.00;20.53;;;-1.00;99.90;;;;;;10442118;28;20650;-77
2022/12/12 20:07:06;;;;;;;34.17;19.50;;;-1.00;99.90;;;;;;10435802;28;20224;-76
2022/12/12 20:12:06;;;;;;;34.27;19.97;;;-1.00;99.90;;;;;;10434951;28;20220;-75
2022/12/12 20:17:07;;;;;;;37.27;20.43;;;-1.00;99.90;;;;;;10434065;28;20839;-77
2022/12/12 20:22:08;;;;;;;33.67;19.83;;;-1.10;99.90;;;;;;10435268;28;20766;-77
2022/12/12 20:27:11;;;;;;;33.20;19.73;;;-1.20;99.90;;;;;;10434675;28;20230;-76
2022/12/12 20:32:12;;;;;;;36.10;19.73;;;-1.20;99.90;;;;;;10434528;28;20231;-76
2022/12/12 20:37:12;;;;;;;35.80;19.30;;;-1.30;99.90;;;;;;10433037;28;20216;-75
2022/12/12 20:42:13;;;;;;;36.60;19.93;;;-1.30;99.90;;;;;;10432832;28;20273;-76
2022/12/12 20:47:16;;;;;;;32.83;19.40;;;-1.30;99.90;;;;;;10431596;28;20784;-76
2022/12/12 20:52:19;;;;;;;35.13;19.80;;;-1.30;99.90;;;;;;10434459;28;20639;-76
2022/12/12 20:57:20;;;;;;;36.00;19.97;;;-1.40;99.90;;;;;;10429988;28;20260;-77
2022/12/12 21:02:20;;;;;;;38.07;20.40;;;-1.50;99.90;;;;;;10433820;28;20251;-76
2022/12/12 21:07:21;;;;;;;34.87;19.73;;;-1.50;99.90;;;;;;10431930;28;20243;-76
2022/12/12 21:12:21;;;;;;;33.60;19.60;;;-1.60;99.90;;;;;;10438532;28;20306;-77
2022/12/12 21:17:22;;;;;;;29.97;18.93;;;-1.60;99.90;;;;;;10432414;28;20216;-76
2022/12/12 21:22:22;;;;;;;26.33;16.77;;;-1.70;99.90;;;;;;10429961;28;20228;-78
2022/12/12 21:27:23;;;;;;;36.50;20.10;;;-1.80;99.90;;;;;;10430369;28;20714;-77
2022/12/12 21:32:24;;;;;;;34.53;19.47;;;-1.80;99.90;;;;;;10432934;28;20212;-77
2022/12/12 21:37:24;;;;;;;34.50;20.47;;;-1.80;99.90;;;;;;10442694;28;20303;-77
2022/12/12 21:42:25;;;;;;;34.83;20.00;;;-1.80;99.90;;;;;;10429255;28;20248;-77
2022/12/12 21:47:25;;;;;;;33.27;19.67;;;-1.80;99.90;;;;;;10434038;28;20215;-77
2022/12/12 21:52:29;;;;;;;34.60;18.50;;;-1.90;99.90;;;;;;10434636;28;20212;-77
2022/12/12 21:57:30;;;;;;;30.40;17.03;;;-2.00;99.90;;;;;;10448159;28;20236;-75
2022/12/12 22:02:30;;;;;;;32.23;18.63;;;-2.10;99.90;;;;;;10426765;28;20232;-76
2022/12/12 22:07:36;;;;;;;34.07;18.80;;;-2.20;99.90;;;;;;10426234;28;20258;-76
2022/12/12 22:12:36;;;;;;;29.77;17.43;;;-2.30;99.90;;;;;;10432994;28;20223;-76
2022/12/12 22:17:40;;;;;;;31.60;17.83;;;-2.30;99.90;;;;;;10425506;28;20224;-76
2022/12/12 22:22:40;;;;;;;36.17;20.03;;;-2.40;99.90;;;;;;10425001;28;20718;-76
2022/12/12 22:27:41;;;;;;;32.77;18.67;;;-2.40;99.90;;;;;;10425715;28;20246;-76
2022/12/12 22:32:45;;;;;;;35.63;19.23;;;-2.40;99.90;;;;;;10433246;28;20277;-76
2022/12/12 22:37:45;;;;;;;35.53;19.03;;;-2.40;99.90;;;;;;10426703;28;20244;-77
2022/12/12 22:42:46;;;;;;;35.27;19.17;;;-2.40;99.90;;;;;;10431127;28;20228;-78
2022/12/12 22:47:46;;;;;;;35.33;19.20;;;-2.40;99.90;;;;;;10425362;28;20219;-77
2022/12/12 22:52:47;;;;;;;33.07;18.87;;;-2.40;99.90;;;;;;10425322;28;20312;-78
2022/12/12 22:57:48;;;;;;;33.70;18.57;;;-2.50;99.90;;;;;;10432004;28;20667;-78
2022/12/12 23:02:49;;;;;;;33.97;19.17;;;-2.50;99.90;;;;;;10426572;28;20262;-77
2022/12/12 23:07:50;;;;;;;39.37;19.93;;;-2.50;99.90;;;;;;10439915;28;20226;-78
2022/12/12 23:12:51;;;;;;;30.83;17.73;;;-2.40;99.90;;;;;;10435212;28;20234;-77
2022/12/12 23:17:51;;;;;;;35.00;18.33;;;-2.40;99.90;;;;;;10434834;28;20581;-78
2022/12/12 23:22:52;;;;;;;33.07;18.07;;;-2.40;99.90;;;;;;10431988;28;20228;-77
2022/12/12 23:27:52;;;;;;;32.47;16.80;;;-2.50;99.90;;;;;;10428888;28;20270;-75
2022/12/12 23:32:53;;;;;;;32.87;17.20;;;-2.60;99.90;;;;;;10439500;28;20321;-77
2022/12/12 23:37:53;;;;;;;30.77;17.30;;;-2.60;99.90;;;;;;10435371;28;20220;-77
2022/12/12 23:42:54;;;;;;;30.07;15.97;;;-2.60;99.90;;;;;;10438669;28;20593;-76
2022/12/12 23:47:54;;;;;;;32.77;17.10;;;-2.70;99.90;;;;;;10440597;28;20215;-74
2022/12/12 23:52:55;;;;;;;31.17;16.27;;;-2.70;99.90;;;;;;10441274;28;20327;-76
2022/12/12 23:57:55;;;;;;;29.77;17.70;;;-2.80;99.90;;;;;;10434739;28;20224;-77
